• Join FlightAware (Why Join?)
  • Login
  • US Flag 
04:59AM EDT


 

Airport Tracker/Info


-or-


 

Live Flight TrackerFlight Track Log ✈ DAL6035 ✈ 17-Apr-2013 ✈ KLGA - KMHT

Flight Track Log - Related Links

Times and Time Zones

All times are in EDT time to prevent confusion due to time zone crossing. See the DAL6035 flight status page for this flight to view local times or setup timezone preferences in your user account.

Time Position Orientation Groundspeed Altitude Reporting Facility
EDT Latitude Longitude Course Direction KTS MPH feet Rate Location/Type
12:07PM 40.8000 -73.8500 27° Northeast 162 186 1,600  Level New York TRACON
12:09PM 40.8794 -73.7878 31° Northeast 210 242 5,300 2,220 Climbing Boston Center
12:10PM 41.1253 -73.5891 28° Northeast  Level FlightAware Approximate
12:10PM 40.9383 -73.7342 35° Northeast 231 266 7,600  Level Boston Center
12:11PM 41.2128 -73.5139 33° Northeast  Level FlightAware Approximate
12:11PM 41.0058 -73.6667 37° Northeast 256 295 10,400  Level Boston Center
12:12PM 41.3022 -73.4430 27° Northeast  Level FlightAware Approximate
12:12PM 41.0750 -73.6131 30° Northeast 301 346 11,600  Level Boston Center
12:13PM 41.1653 -73.5458 29° Northeast 323 372 13,800 2,100 Climbing Boston Center
12:14PM 41.2389 -73.4917 29° Northeast 336 387 15,800 1,860 Climbing Boston Center
12:15PM 41.3333 -73.4214 29° Northeast 336 387 17,700 1,440 Climbing Boston Center
12:16PM 41.4131 -73.3644 28° Northeast 347 399 18,800 660 Climbing Boston Center
12:17PM 41.5117 -73.2772 34° Northeast 375 432 19,000 60 Climbing Boston Center
12:18PM 41.5853 -73.1756 46° Northeast 406 467 19,000  Level Boston Center
12:19PM 41.6981 -73.1186 21° North 394 453 19,000  Level Boston Center
12:20PM 41.7917 -73.1361 352° North 372 428 19,000  Level Boston Center
12:21PM 41.9064 -73.1542 353° North 367 422 19,000  Level Boston Center
12:22PM 42.0000 -73.1692 353° North 367 422 19,000  Level Boston Center
12:23PM 42.1167 -73.1872 353° North 372 428 19,000  Level Boston Center
12:24PM 42.2122 -73.2053 352° North 382 440 19,000  Level Boston Center
12:25PM 42.3311 -73.2264 353° North 382 440 19,000  Level Boston Center
12:26PM 42.4331 -73.2447 352° North 382 440 19,000  Level Boston Center
12:27PM 42.5189 -73.1808 29° Northeast 364 419 19,000  Level Boston Center
12:28PM 42.5739 -73.0181 65° Northeast 382 440 19,000  Level Boston Center
12:29PM 42.6225 -72.8717 66° East 409 471 19,000 -480 Level Boston Center
12:30PM 42.6669 -72.7225 68° East 419 482 18,100 -1,380 Descending Boston Center
12:32PM 42.7567 -72.4231 68° East 424 488 15,000 -1,620 Descending Boston Center
12:33PM 42.7942 -72.2758 71° East 424 488 13,400 -1,260 Descending Boston Center
12:34PM 42.8064 -72.1458 83° East 368 423 12,500 -1,500 Descending Boston Center
12:35PM 42.8144 -72.0211 85° East 328 377 10,400 -1,920 Descending Boston Center
12:36PM 42.8244 -71.9050 83° East 317 365 8,700 -1,500 Descending Boston Center
12:37PM 42.8258 -71.8061 89° East 298 343 7,400 -1,320 Descending Boston Center
12:38PM 42.8147 -71.6928 98° East 275 316 5,900 -1,440 Descending Boston Center
12:39PM 42.8056 -71.5797 96° East 265 305 4,300 -960 Descending Boston Center
12:40PM 42.8008 -71.5006 95° East 238 274 4,000 -420 Descending Boston Center
12:41PM 42.7917 -71.4075 98° East 227 261 3,500 -720 Descending Boston Center
12:42PM 42.8078 -71.3561 67° East 154 177 2,600 -960 Descending Boston Center